Time;durP1;ratioP1;P1;durP2;ratioP2;P2;SDS_P1;SDS_P2;PMS_P1;PMS_P2;Temp;Humidity;BMP_temperature;BMP_pressure;BME280_temperature;BME280_humidity;BME280_pressure;Samples;Min_cycle;Max_cycle;Signal;HPM_P1;HPM_P2
2021/01/13 00:01:11;;;;;;;16.23;10.85;;;;;;;4.76;58.77;92968.28;4963461;28;20049;-77
2021/01/13 00:03:36;;;;;;;15.27;10.63;;;;;;;4.79;58.68;92982.63;4960159;28;20027;-79
2021/01/13 00:06:02;;;;;;;15.77;9.98;;;;;;;4.80;58.20;92978.97;4967377;28;20121;-78
2021/01/13 00:08:27;;;;;;;14.57;9.80;;;;;;;4.71;58.43;92985.84;4978126;28;20572;-79
2021/01/13 00:10:53;;;;;;;11.82;8.95;;;;;;;4.66;58.55;92989.28;4964912;28;20042;-78
2021/01/13 00:13:19;;;;;;;10.75;7.78;;;;;;;4.63;57.89;92975.97;4977562;28;20039;-76
2021/01/13 00:15:44;;;;;;;12.07;8.55;;;;;;;4.59;58.04;92988.81;4966281;28;20039;-79
2021/01/13 00:18:11;;;;;;;12.32;9.15;;;;;;;4.54;57.94;92990.66;4963923;28;20029;-78
2021/01/13 00:20:36;;;;;;;10.38;7.50;;;;;;;4.47;57.72;92983.13;4961278;28;20035;-79
2021/01/13 00:23:02;;;;;;;7.25;5.72;;;;;;;4.42;57.82;92980.53;4962610;28;20046;-79
2021/01/13 00:25:27;;;;;;;7.72;5.70;;;;;;;4.44;58.04;92991.50;4963797;28;20039;-79
2021/01/13 00:27:53;;;;;;;6.97;5.90;;;;;;;4.39;58.15;92999.38;4966027;28;20038;-79
2021/01/13 00:30:18;;;;;;;8.68;6.40;;;;;;;4.35;58.41;92987.88;4965387;28;20050;-79
2021/01/13 00:32:44;;;;;;;7.43;5.82;;;;;;;4.35;58.33;92993.09;4965819;28;20059;-79
2021/01/13 00:35:10;;;;;;;7.18;6.10;;;;;;;4.39;58.32;92995.97;4962066;28;20043;-79
2021/01/13 00:37:37;;;;;;;6.75;5.35;;;;;;;4.40;58.16;92993.06;4965829;28;20678;-79
2021/01/13 00:40:05;;;;;;;5.55;4.80;;;;;;;4.34;58.41;92987.13;4963097;28;20069;-79
2021/01/13 00:42:30;;;;;;;5.90;4.63;;;;;;;4.29;58.32;92981.13;4960282;28;20108;-78
2021/01/13 00:44:56;;;;;;;5.43;4.93;;;;;;;4.35;58.42;92991.28;4968670;28;20106;-78
2021/01/13 00:47:21;;;;;;;5.40;4.47;;;;;;;4.38;57.96;92997.81;4958085;28;20412;-79
2021/01/13 00:49:47;;;;;;;5.70;5.10;;;;;;;4.45;58.30;92997.53;4962765;28;20038;-79
2021/01/13 00:52:12;;;;;;;5.43;4.50;;;;;;;4.36;57.99;92986.81;4961306;28;20390;-79
2021/01/13 00:54:38;;;;;;;6.22;4.82;;;;;;;4.38;58.30;92989.97;4961758;28;20080;-79
2021/01/13 00:57:05;;;;;;;6.05;4.82;;;;;;;4.37;58.11;92980.56;4967127;28;20034;-79
2021/01/13 00:59:31;;;;;;;4.60;4.10;;;;;;;4.37;58.09;92983.16;4961312;28;20048;-78
2021/01/13 01:01:56;;;;;;;5.28;4.45;;;;;;;4.24;58.52;92968.06;4963353;28;20042;-79
2021/01/13 01:04:22;;;;;;;5.95;4.07;;;;;;;4.24;58.29;92981.94;4977235;28;20681;-78
2021/01/13 01:06:49;;;;;;;4.53;3.97;;;;;;;4.38;58.40;92982.13;4966280;28;20026;-79
2021/01/13 01:09:15;;;;;;;4.53;4.00;;;;;;;4.42;58.48;92980.53;4954176;28;20039;-80
2021/01/13 01:11:40;;;;;;;6.03;4.40;;;;;;;4.44;58.26;92980.25;4961693;28;20050;-79
2021/01/13 01:14:08;;;;;;;6.80;5.28;;;;;;;4.38;58.39;92979.50;4962085;28;20734;-79
2021/01/13 01:16:36;;;;;;;5.85;4.63;;;;;;;4.46;58.28;92978.94;4962431;28;20053;-78
2021/01/13 01:19:03;;;;;;;6.20;4.70;;;;;;;4.45;58.36;92966.13;4966549;28;20042;-79
2021/01/13 01:21:28;;;;;;;5.28;4.60;;;;;;;4.45;58.67;92964.28;4956068;28;20137;-79
2021/01/13 01:23:54;;;;;;;5.57;4.47;;;;;;;4.54;58.62;92969.75;4967503;28;20026;-78
2021/01/13 01:26:20;;;;;;;6.68;5.05;;;;;;;4.56;58.25;92971.03;4958743;28;20042;-79
2021/01/13 01:28:45;;;;;;;6.47;4.57;;;;;;;4.50;58.45;92953.78;4962763;28;20062;-79
2021/01/13 01:31:11;;;;;;;5.03;4.07;;;;;;;4.60;58.37;92969.41;4962645;28;20058;-78
2021/01/13 01:33:36;;;;;;;4.80;4.28;;;;;;;4.64;58.52;92959.22;4958350;28;20018;-78
2021/01/13 01:36:02;;;;;;;6.93;5.97;;;;;;;4.60;58.59;92948.50;4963953;28;20311;-79
2021/01/13 01:38:27;;;;;;;8.43;5.63;;;;;;;4.62;58.78;92946.41;4957823;28;20129;-78
2021/01/13 01:41:01;;;;;;;8.45;5.97;;;;;;;4.60;58.49;92939.84;4961219;28;20076;-79
2021/01/13 01:43:26;;;;;;;8.73;6.28;;;;;;;4.64;58.84;92943.50;4960391;28;21013;-79
2021/01/13 01:45:51;;;;;;;8.85;6.00;;;;;;;4.72;58.95;92948.16;4964433;28;20047;-79
2021/01/13 01:48:26;;;;;;;5.82;4.78;;;;;;;4.66;58.50;92936.94;4958545;28;20036;-78
2021/01/13 01:50:57;;;;;;;5.35;4.85;;;;;;;4.56;58.38;92931.78;4966746;28;20396;-78
2021/01/13 01:53:28;;;;;;;7.10;4.53;;;;;;;4.61;58.17;92944.81;4978466;28;20073;-78
2021/01/13 01:56:15;;;;;;;6.72;4.57;;;;;;;4.48;58.68;92952.50;4960941;28;20074;-79
2021/01/13 01:58:47;;;;;;;5.60;4.68;;;;;;;4.47;58.92;92933.41;4975857;28;20096;-79
2021/01/13 02:01:13;;;;;;;8.30;5.97;;;;;;;4.49;58.98;92930.53;4962319;28;20379;-78
2021/01/13 02:03:49;;;;;;;7.15;5.13;;;;;;;4.46;59.03;92928.44;4960204;28;20033;-79
2021/01/13 02:06:17;;;;;;;6.22;5.47;;;;;;;4.45;59.17;92927.66;4967087;28;20553;-78
2021/01/13 02:08:44;;;;;;;5.20;4.70;;;;;;;4.53;59.58;92929.72;4965325;28;20054;-78
2021/01/13 02:11:17;;;;;;;6.95;5.90;;;;;;;4.49;59.32;92910.38;4967591;28;20050;-78
2021/01/13 02:13:47;;;;;;;7.50;5.28;;;;;;;4.58;59.24;92929.69;4984652;28;20123;-78
2021/01/13 02:16:17;;;;;;;7.60;5.68;;;;;;;4.52;59.01;92917.69;4965334;28;20092;-79
2021/01/13 02:18:45;;;;;;;5.15;4.65;;;;;;;4.39;59.00;92905.22;4969499;28;20141;-79
2021/01/13 02:21:20;;;;;;;7.18;5.80;;;;;;;4.57;59.03;92922.09;4964155;28;20034;-79
2021/01/13 02:23:58;;;;;;;7.57;6.03;;;;;;;4.66;59.11;92921.25;4966979;28;20514;-79
2021/01/13 02:27:00;;;;;;;7.35;6.20;;;;;;;4.52;59.21;92901.97;4964798;28;20082;-78
2021/01/13 02:29:34;;;;;;;7.93;6.20;;;;;;;4.69;59.23;92919.94;4962374;28;20517;-79
2021/01/13 02:32:10;;;;;;;7.07;5.78;;;;;;;4.61;58.94;92915.25;4977487;28;20136;-79
2021/01/13 02:34:44;;;;;;;7.38;6.05;;;;;;;4.56;58.83;92923.13;4963581;28;20125;-79
2021/01/13 02:37:31;;;;;;;9.02;6.82;;;;;;;4.68;59.04;92932.22;4981266;28;20065;-79
2021/01/13 02:39:57;;;;;;;11.82;7.30;;;;;;;4.73;58.96;92932.19;4962625;28;20042;-78
2021/01/13 02:42:28;;;;;;;10.57;7.53;;;;;;;4.71;58.93;92931.66;4969917;28;20031;-79
2021/01/13 02:45:11;;;;;;;9.13;7.45;;;;;;;4.72;58.34;92924.59;4964353;28;20034;-79
2021/01/13 02:47:52;;;;;;;10.90;8.30;;;;;;;4.73;58.33;92926.97;4984551;28;20126;-78
2021/01/13 02:50:27;;;;;;;12.35;9.00;;;;;;;4.72;58.55;92929.84;4959963;28;20073;-78
2021/01/13 02:53:09;;;;;;;17.35;11.32;;;;;;;4.72;58.56;92930.63;4962885;28;20088;-78
2021/01/13 02:55:39;;;;;;;15.95;10.82;;;;;;;4.56;58.77;92904.81;4959420;28;21171;-79
2021/01/13 02:58:06;;;;;;;17.10;11.95;;;;;;;4.73;59.15;92924.34;4965685;28;20204;-78
2021/01/13 03:00:32;;;;;;;19.55;12.60;;;;;;;4.46;59.10;92889.97;4960841;28;20443;-79
2021/01/13 03:03:01;;;;;;;18.48;12.98;;;;;;;4.72;59.09;92920.16;4965177;28;20369;-79
2021/01/13 03:05:27;;;;;;;19.20;12.73;;;;;;;4.73;59.02;92919.09;4966448;28;20249;-79
2021/01/13 03:07:56;;;;;;;18.38;13.35;;;;;;;4.73;58.91;92913.88;4976005;28;20058;-80
2021/01/13 03:10:25;;;;;;;19.83;12.85;;;;;;;4.78;59.00;92921.69;4966155;28;20039;-79
2021/01/13 03:13:01;;;;;;;20.55;13.02;;;;;;;4.70;58.95;92906.56;4960239;28;20051;-79
2021/01/13 03:15:27;;;;;;;20.27;13.63;;;;;;;4.75;58.94;92914.38;4964178;28;20502;-78
2021/01/13 03:18:14;;;;;;;21.48;14.05;;;;;;;4.78;59.30;92915.66;4963305;28;20566;-79
2021/01/13 03:21:06;;;;;;;24.30;15.07;;;;;;;4.77;59.34;92912.25;4978495;28;20041;-79
2021/01/13 03:23:44;;;;;;;21.55;14.50;;;;;;;4.72;59.63;92899.22;4965766;28;20089;-79
2021/01/13 03:26:15;;;;;;;22.70;16.02;;;;;;;4.77;59.77;92907.03;4956438;28;20031;-80
2021/01/13 03:28:41;;;;;;;24.40;16.15;;;;;;;4.73;59.95;92892.94;4961059;28;20038;-79
2021/01/13 03:31:10;;;;;;;22.73;15.32;;;;;;;4.79;59.83;92901.50;4966899;28;20066;-78
2021/01/13 03:33:41;;;;;;;21.33;13.68;;;;;;;4.82;59.67;92908.81;4962893;28;20101;-79
2021/01/13 03:36:19;;;;;;;21.35;13.90;;;;;;;4.85;59.62;92917.94;4963066;28;20092;-79
2021/01/13 03:39:04;;;;;;;23.63;16.20;;;;;;;4.73;59.73;92902.63;4965972;28;20061;-79
2021/01/13 03:41:50;;;;;;;24.95;16.98;;;;;;;4.81;59.71;92915.09;4958840;28;20733;-79
2021/01/13 03:44:25;;;;;;;26.00;17.20;;;;;;;4.72;59.76;92920.16;4963660;28;20062;-79
2021/01/13 03:46:51;;;;;;;;;;;;;;;4.78;60.04;92911.22;4974628;28;20047;-79
2021/01/13 03:49:25;;;;;;;22.45;16.15;;;;;;;4.73;60.20;92916.50;4967989;28;19920;-79
2021/01/13 03:52:00;;;;;;;23.85;15.98;;;;;;;4.70;60.19;92922.25;4959806;28;20052;-79
2021/01/13 03:54:27;;;;;;;26.38;17.85;;;;;;;4.62;60.27;92901.13;4957753;28;20125;-79
2021/01/13 03:57:04;;;;;;;24.92;16.15;;;;;;;4.73;60.32;92918.31;4965159;28;20026;-79
2021/01/13 03:59:42;;;;;;;26.10;17.73;;;;;;;4.72;60.29;92920.16;4973795;28;20038;-78
2021/01/13 04:02:09;;;;;;;29.90;18.20;;;;;;;4.68;60.38;92918.34;4978687;28;20190;-79
2021/01/13 04:05:02;;;;;;;34.85;21.50;;;;;;;4.72;60.36;92920.16;4959148;28;20134;-79
2021/01/13 04:07:36;;;;;;;28.40;18.55;;;;;;;4.71;60.53;92928.28;4965147;28;20050;-79
2021/01/13 04:10:07;;;;;;;54.13;29.25;;;;;;;4.70;60.42;92927.50;4961977;28;20490;-79
2021/01/13 04:12:51;;;;;;;25.65;17.98;;;;;;;4.68;60.31;92920.97;4962282;28;20019;-79
2021/01/13 04:15:20;;;;;;;28.20;17.95;;;;;;;4.72;60.69;92928.00;4959374;28;21264;-79
2021/01/13 04:17:46;;;;;;;23.42;16.13;;;;;;;4.73;60.41;92920.94;4982559;28;20054;-79
2021/01/13 04:20:12;;;;;;;26.75;18.23;;;;;;;4.72;60.55;92930.63;4963414;28;20047;-80
2021/01/13 04:22:37;;;;;;;27.80;18.60;;;;;;;4.68;60.38;92934.84;4965578;28;20038;-79
2021/01/13 04:25:04;;;;;;;24.60;18.58;;;;;;;4.64;60.51;92939.03;4963315;28;20526;-79
2021/01/13 04:27:30;;;;;;;27.00;18.70;;;;;;;4.62;60.37;92935.94;4961067;28;20773;-79
2021/01/13 04:29:56;;;;;;;31.63;19.70;;;;;;;4.65;60.53;92938.00;4978241;28;20042;-78
2021/01/13 04:32:21;;;;;;;28.88;18.40;;;;;;;4.63;60.58;92942.72;4961693;28;20473;-79
2021/01/13 04:34:48;;;;;;;28.85;18.35;;;;;;;4.65;60.62;92934.59;4965708;28;20053;-79
2021/01/13 04:37:14;;;;;;;30.83;20.08;;;;;;;4.68;60.66;92937.47;4963659;28;20109;-80
2021/01/13 04:39:40;;;;;;;26.58;19.13;;;;;;;4.73;60.28;92942.66;4963183;28;20036;-79
2021/01/13 04:42:12;;;;;;;25.05;16.80;;;;;;;4.68;60.21;92934.06;4962916;28;20026;-79
2021/01/13 04:45:03;;;;;;;24.92;16.80;;;;;;;4.66;60.34;92923.06;4961575;28;20074;-79
2021/01/13 04:47:50;;;;;;;23.33;16.30;;;;;;;4.72;60.44;92924.59;4960638;28;21046;-78
2021/01/13 04:50:19;;;;;;;28.55;19.20;;;;;;;4.71;60.34;92915.97;4969651;28;20086;-78
2021/01/13 04:52:48;;;;;;;24.42;15.75;;;;;;;4.69;60.33;92912.06;4959850;28;20114;-78
2021/01/13 04:55:42;;;;;;;18.05;12.88;;;;;;;4.76;60.29;92931.63;4962219;28;20039;-78
2021/01/13 04:58:26;;;;;;;16.45;11.65;;;;;;;4.79;60.31;92938.94;4965023;28;20046;-78
2021/01/13 05:01:22;;;;;;;17.52;12.45;;;;;;;4.81;60.16;92951.75;4977163;28;20050;-78
2021/01/13 05:04:43;;;;;;;26.23;18.25;;;;;;;4.69;60.28;92939.00;4973066;28;20058;-78
2021/01/13 05:07:31;;;;;;;33.00;19.80;;;;;;;4.75;60.87;92951.00;4945818;28;20384;-78
2021/01/13 05:10:16;;;;;;;41.97;26.23;;;;;;;4.74;60.81;92948.69;4958513;28;20715;-78
2021/01/13 05:12:56;;;;;;;37.47;23.90;;;;;;;4.70;61.08;92958.09;4962069;28;20057;-78
2021/01/13 05:15:32;;;;;;;29.88;18.85;;;;;;;4.64;61.15;92946.13;4962297;28;20041;-78
2021/01/13 05:18:11;;;;;;;30.35;19.35;;;;;;;4.65;61.41;92958.91;4968734;28;20700;-78
2021/01/13 05:20:39;;;;;;;27.17;18.42;;;;;;;4.67;61.50;92967.28;4960335;28;20097;-78
2021/01/13 05:23:06;;;;;;;26.63;17.70;;;;;;;4.64;61.69;92965.19;4957210;28;20062;-78
2021/01/13 05:25:39;;;;;;;24.00;18.33;;;;;;;4.60;62.58;92964.19;4964374;28;20066;-79
2021/01/13 05:28:14;;;;;;;22.50;16.30;;;;;;;4.51;62.62;92949.34;4962911;28;20038;-78
2021/01/13 05:30:42;;;;;;;22.55;16.55;;;;;;;4.56;62.08;92957.94;4961043;28;20054;-78
2021/01/13 05:33:10;;;;;;;21.10;15.60;;;;;;;4.55;61.84;92951.13;4964055;28;20019;-77
2021/01/13 05:35:39;;;;;;;26.13;16.05;;;;;;;4.63;61.69;92961.03;4965602;28;20042;-78
2021/01/13 05:38:06;;;;;;;26.30;15.93;;;;;;;4.71;61.33;92954.44;4960007;28;20070;-79
2021/01/13 05:40:38;;;;;;;24.25;15.55;;;;;;;4.71;61.07;92960.47;4958988;28;20050;-78
2021/01/13 05:43:06;;;;;;;22.30;15.73;;;;;;;4.70;61.20;92952.88;4974529;28;20061;-78
2021/01/13 05:45:32;;;;;;;29.13;16.60;;;;;;;4.72;61.06;92967.25;4960213;28;20093;-79
2021/01/13 05:48:01;;;;;;;26.13;16.98;;;;;;;4.73;60.89;92962.81;4962582;28;20546;-78
2021/01/13 05:50:27;;;;;;;23.17;15.48;;;;;;;4.79;60.81;92969.56;4959046;28;20045;-78
2021/01/13 05:52:54;;;;;;;22.85;17.17;;;;;;;4.87;61.04;92968.22;4962442;28;20104;-79
2021/01/13 05:55:21;;;;;;;28.73;21.25;;;;;;;4.80;61.02;92979.75;4957821;28;20042;-78
2021/01/13 05:57:53;;;;;;;30.70;18.67;;;;;;;4.81;60.69;92975.31;4959332;28;20545;-78
2021/01/13 06:00:20;;;;;;;33.03;22.27;;;;;;;4.79;60.95;92977.41;4980966;28;20022;-78
2021/01/13 06:02:47;;;;;;;27.23;19.98;;;;;;;4.89;60.70;92976.59;4959248;28;20058;-79
2021/01/13 06:05:13;;;;;;;23.75;18.02;;;;;;;4.91;60.86;92983.09;4958415;28;20046;-78
2021/01/13 06:07:42;;;;;;;29.05;19.40;;;;;;;4.91;60.25;92982.31;4978003;28;20085;-78
2021/01/13 06:10:08;;;;;;;28.05;18.98;;;;;;;4.93;60.36;92983.63;4968528;28;20042;-78
2021/01/13 06:12:42;;;;;;;28.02;18.88;;;;;;;4.87;60.40;92983.91;4975705;28;20125;-77
2021/01/13 06:15:12;;;;;;;74.57;45.60;;;;;;;4.89;60.37;92987.06;4960521;28;20957;-78
2021/01/13 06:17:48;;;;;;;51.35;35.13;;;;;;;4.84;59.75;92969.50;4960495;28;20649;-78
2021/01/13 06:20:19;;;;;;;46.45;29.42;;;;;;;4.88;60.06;92975.00;4964146;28;20031;-78
2021/01/13 06:22:47;;;;;;;49.83;36.47;;;;;;;4.96;60.13;92985.69;4960657;28;20050;-78
2021/01/13 06:25:13;;;;;;;34.88;22.67;;;;;;;4.94;59.82;92979.13;4960736;28;21001;-78
2021/01/13 06:27:56;;;;;;;31.02;19.60;;;;;;;5.01;59.58;92987.47;4962682;28;20027;-78
2021/01/13 06:30:28;;;;;;;39.63;27.35;;;;;;;5.00;59.71;92985.91;4960200;28;20531;-77
2021/01/13 06:33:05;;;;;;;30.98;21.23;;;;;;;5.03;59.72;92995.84;4962043;28;20031;-78
2021/01/13 06:35:43;;;;;;;28.65;18.50;;;;;;;5.01;59.67;92995.31;4956287;28;20043;-77
2021/01/13 06:38:29;;;;;;;33.00;20.33;;;;;;;4.91;59.92;92982.31;4978243;28;20030;-78
2021/01/13 06:41:03;;;;;;;33.83;21.23;;;;;;;4.91;59.89;93004.03;4959793;28;20508;-77
2021/01/13 06:43:29;;;;;;;35.50;22.50;;;;;;;4.89;59.78;93002.75;4966825;28;20049;-77
2021/01/13 06:45:55;;;;;;;40.15;23.60;;;;;;;4.92;60.04;93012.69;4956766;28;20144;-78
2021/01/13 06:48:26;;;;;;;37.28;25.92;;;;;;;4.87;59.86;93004.84;4962370;28;20030;-78
2021/01/13 06:50:59;;;;;;;34.88;22.33;;;;;;;4.86;59.88;93024.22;4963871;28;20026;-77
2021/01/13 06:53:35;;;;;;;37.45;25.27;;;;;;;4.85;59.94;93020.81;4961614;28;20582;-77
2021/01/13 06:56:16;;;;;;;41.40;25.33;;;;;;;4.93;60.02;93014.25;4963660;28;20053;-78
2021/01/13 06:59:02;;;;;;;32.80;22.02;;;;;;;4.97;59.75;93018.66;4960882;28;20121;-77
2021/01/13 07:01:29;;;;;;;29.17;20.10;;;;;;;4.99;59.38;93029.63;4963712;28;20038;-78
2021/01/13 07:04:01;;;;;;;29.35;17.23;;;;;;;5.14;58.57;93029.53;4961979;28;20173;-77
2021/01/13 07:06:27;;;;;;;22.02;16.10;;;;;;;5.15;58.11;93022.44;4960843;28;20046;-78
2021/01/13 07:08:53;;;;;;;25.02;16.00;;;;;;;5.29;57.74;93031.25;4966439;28;21504;-77
2021/01/13 07:11:19;;;;;;;28.50;18.48;;;;;;;5.46;57.25;93026.41;4964279;28;20034;-77
2021/01/13 07:13:51;;;;;;;28.67;18.08;;;;;;;5.53;57.19;93029.47;4962816;28;20078;-78
2021/01/13 07:16:22;;;;;;;26.77;18.20;;;;;;;5.68;56.48;93026.72;4962347;28;20111;-77
2021/01/13 07:18:47;;;;;;;27.48;19.05;;;;;;;5.80;56.16;93028.19;4962334;28;20046;-78
2021/01/13 07:21:13;;;;;;;24.75;17.23;;;;;;;5.96;55.98;93038.25;4964869;28;20026;-78
2021/01/13 07:23:46;;;;;;;28.67;18.75;;;;;;;5.97;55.83;93033.81;4962839;28;20042;-76
2021/01/13 07:26:13;;;;;;;29.92;19.15;;;;;;;5.98;55.78;93028.28;4962972;28;20070;-77
2021/01/13 07:28:39;;;;;;;26.65;17.05;;;;;;;6.06;55.56;93037.38;4966599;28;20031;-77
2021/01/13 07:31:06;;;;;;;26.13;18.50;;;;;;;6.00;55.69;93033.25;4960851;28;20822;-78
2021/01/13 07:33:41;;;;;;;29.58;17.55;;;;;;;6.08;55.72;93035.25;4961902;28;20406;-77
2021/01/13 07:36:12;;;;;;;28.57;17.77;;;;;;;6.12;55.23;93033.63;4968502;28;20030;-77
2021/01/13 07:38:43;;;;;;;29.17;19.02;;;;;;;6.00;55.55;93039.28;4961335;28;20283;-78
2021/01/13 07:41:10;;;;;;;30.73;18.85;;;;;;;6.07;55.45;93039.72;4967714;28;20089;-78
2021/01/13 07:44:02;;;;;;;27.98;17.13;;;;;;;6.11;55.60;93041.81;4958447;28;20549;-77
2021/01/13 07:46:30;;;;;;;20.83;14.18;;;;;;;6.16;54.88;93034.63;4965198;28;20043;-78
2021/01/13 07:49:10;;;;;;;22.67;16.13;;;;;;;6.25;55.04;93035.63;4966074;28;20050;-78
2021/01/13 07:51:52;;;;;;;20.15;13.32;;;;;;;6.29;54.99;93031.38;4980095;28;20035;-78
2021/01/13 07:54:35;;;;;;;25.08;17.73;;;;;;;6.29;54.93;93030.59;4962203;28;20533;-77
2021/01/13 07:57:07;;;;;;;21.95;17.23;;;;;;;6.35;55.07;93034.72;4967846;28;20047;-78
2021/01/13 07:59:44;;;;;;;21.70;16.60;;;;;;;6.48;54.90;93045.31;4963000;28;20046;-77
2021/01/13 08:02:37;;;;;;;17.48;12.63;;;;;;;6.53;54.96;93047.88;4981406;28;20410;-78
2021/01/13 08:05:21;;;;;;;22.33;15.02;;;;;;;6.52;54.66;93048.13;4959324;28;20103;-78
2021/01/13 08:08:08;;;;;;;19.50;14.23;;;;;;;6.51;54.26;93049.97;4967662;28;20403;-78
2021/01/13 08:10:39;;;;;;;14.55;10.50;;;;;;;6.39;54.10;93049.63;4961879;28;20053;-77
2021/01/13 08:13:22;;;;;;;14.65;9.48;;;;;;;6.40;54.12;93048.53;4966337;28;20057;-77
2021/01/13 08:16:15;;;;;;;16.35;10.93;;;;;;;6.42;53.88;93051.66;4962499;28;20141;-77
2021/01/13 08:19:18;;;;;;;16.15;11.68;;;;;;;6.41;53.64;93044.84;4965935;28;20070;-78
2021/01/13 08:21:50;;;;;;;19.33;11.15;;;;;;;6.41;53.47;93052.72;4960322;28;20046;-78
2021/01/13 08:24:22;;;;;;;19.50;12.68;;;;;;;6.44;53.71;93065.31;4965508;28;20035;-77
2021/01/13 08:26:48;;;;;;;22.58;16.95;;;;;;;6.47;54.04;93075.22;4963732;28;20045;-78
2021/01/13 08:29:18;;;;;;;23.05;18.23;;;;;;;6.48;53.86;93061.06;4963634;28;20034;-76
2021/01/13 08:31:50;;;;;;;17.75;12.30;;;;;;;6.50;53.90;93064.16;4977562;28;20526;-77
2021/01/13 08:34:17;;;;;;;14.65;10.68;;;;;;;6.51;53.82;93072.81;4976088;28;20065;-77
2021/01/13 08:36:53;;;;;;;16.40;11.02;;;;;;;6.48;53.88;93068.94;4963218;28;20054;-78
2021/01/13 08:39:27;;;;;;;14.60;10.77;;;;;;;6.63;53.49;93075.06;4960373;28;20082;-77
2021/01/13 08:41:56;;;;;;;20.90;14.65;;;;;;;6.63;53.41;93083.72;4961102;28;20506;-76
2021/01/13 08:44:38;;;;;;;16.05;12.70;;;;;;;6.58;53.69;93075.13;4960054;28;20554;-78
2021/01/13 08:47:04;;;;;;;16.75;10.60;;;;;;;6.48;53.57;93076.81;4964522;28;20593;-78
2021/01/13 08:49:31;;;;;;;20.23;13.05;;;;;;;6.42;53.45;93072.66;4961824;28;20133;-78
2021/01/13 08:52:18;;;;;;;20.38;13.80;;;;;;;6.48;53.59;93084.69;4961827;28;20775;-77
2021/01/13 08:54:55;;;;;;;22.58;16.95;;;;;;;6.55;53.85;93091.44;4958473;28;20611;-77
2021/01/13 08:57:21;;;;;;;27.40;16.27;;;;;;;6.53;53.64;93095.13;4962340;28;20038;-76
2021/01/13 08:59:48;;;;;;;24.08;15.30;;;;;;;6.61;53.89;93096.31;4965983;28;20026;-77
2021/01/13 09:02:17;;;;;;;27.73;17.42;;;;;;;6.59;54.45;93101.09;4961814;28;20515;-76
2021/01/13 09:04:56;;;;;;;29.35;17.25;;;;;;;6.47;55.08;93108.56;4978323;28;20131;-77
2021/01/13 09:07:26;;;;;;;30.63;18.02;;;;;;;6.50;54.76;93106.16;4963204;28;20077;-77
2021/01/13 09:10:04;;;;;;;30.10;19.35;;;;;;;6.54;55.02;93106.41;4965261;28;20097;-75
2021/01/13 09:12:32;;;;;;;25.50;16.73;;;;;;;6.51;54.64;93102.47;4973147;28;20153;-76
2021/01/13 09:15:07;;;;;;;29.83;19.95;;;;;;;6.60;54.80;93102.63;4977946;28;20030;-76
2021/01/13 09:17:52;;;;;;;32.25;20.45;;;;;;;6.63;54.74;93099.47;4976756;28;20043;-77
2021/01/13 09:20:21;;;;;;;36.05;22.85;;;;;;;6.73;54.51;93098.56;4956949;28;20043;-77
2021/01/13 09:22:59;;;;;;;37.28;21.48;;;;;;;6.70;54.54;93104.34;4963033;28;20058;-77
2021/01/13 09:25:28;;;;;;;33.20;22.42;;;;;;;6.61;54.47;93088.44;4954467;28;20074;-77
2021/01/13 09:28:01;;;;;;;34.65;22.75;;;;;;;6.63;54.69;93088.19;4962775;28;20510;-77
2021/01/13 09:30:34;;;;;;;41.10;24.52;;;;;;;6.66;54.60;93098.09;4961409;28;20054;-76
2021/01/13 09:33:01;;;;;;;38.20;22.70;;;;;;;6.69;54.92;93092.31;4966090;28;20499;-76
2021/01/13 09:35:36;;;;;;;41.78;24.35;;;;;;;6.80;54.99;93101.59;4970026;28;20069;-77
2021/01/13 09:38:13;;;;;;;38.22;24.75;;;;;;;6.78;54.63;93072.25;4963335;28;20039;-77
2021/01/13 09:40:50;;;;;;;34.20;21.02;;;;;;;6.99;54.21;93096.41;4962864;28;20047;-76
2021/01/13 09:43:31;;;;;;;39.00;23.52;;;;;;;7.06;54.02;93087.09;4965401;28;20121;-76
2021/01/13 09:45:59;;;;;;;48.40;28.48;;;;;;;7.24;53.70;93082.91;4960580;28;20042;-76
2021/01/13 09:48:28;;;;;;;35.50;24.67;;;;;;;7.44;53.44;93084.44;4960034;28;20025;-76
2021/01/13 09:51:07;;;;;;;34.50;21.83;;;;;;;7.46;53.21;93084.97;4964658;28;20026;-76
2021/01/13 09:53:35;;;;;;;28.45;18.73;;;;;;;7.64;52.68;93086.78;4960185;28;20043;-76
2021/01/13 09:56:03;;;;;;;18.48;10.88;;;;;;;7.61;52.14;93085.50;4958854;28;20078;-76
2021/01/13 09:58:38;;;;;;;15.00;9.45;;;;;;;7.62;51.54;93079.19;4962181;28;20034;-77
2021/01/13 10:01:11;;;;;;;13.15;8.90;;;;;;;7.57;51.77;93067.97;4959283;28;20049;-78
2021/01/13 10:03:37;;;;;;;14.98;9.07;;;;;;;7.64;51.00;93066.53;4960261;28;20084;-77
2021/01/13 10:06:10;;;;;;;14.30;10.07;;;;;;;7.66;50.83;93074.13;4968014;28;20030;-78
2021/01/13 10:08:36;;;;;;;15.13;11.30;;;;;;;7.62;51.36;93062.63;4961487;28;20460;-77
2021/01/13 10:11:02;;;;;;;12.52;9.23;;;;;;;7.39;51.04;93066.91;4966276;28;20112;-75
2021/01/13 10:13:29;;;;;;;18.10;10.30;;;;;;;7.24;51.28;93054.00;4960752;28;21009;-76
2021/01/13 10:16:00;;;;;;;15.98;10.90;;;;;;;7.43;51.31;93054.75;4955730;28;20042;-78
2021/01/13 10:18:27;;;;;;;16.58;10.32;;;;;;;7.44;51.35;93055.53;4958916;28;20034;-76
2021/01/13 10:20:58;;;;;;;14.82;11.30;;;;;;;7.30;51.26;93060.75;4959651;28;20037;-76
2021/01/13 10:23:28;;;;;;;15.50;12.48;;;;;;;7.40;51.31;93061.38;4957588;28;20161;-76
2021/01/13 10:26:19;;;;;;;19.60;13.18;;;;;;;7.36;51.38;93060.38;4956866;28;20078;-77
2021/01/13 10:28:45;;;;;;;19.23;14.40;;;;;;;7.29;51.66;93056.53;4956477;28;20124;-77
2021/01/13 10:31:22;;;;;;;23.60;16.52;;;;;;;7.39;51.70;93061.66;4958588;28;21192;-76
2021/01/13 10:33:54;;;;;;;15.90;11.73;;;;;;;7.47;51.01;93060.25;4975567;28;20061;-76
2021/01/13 10:36:32;;;;;;;21.25;12.70;;;;;;;7.41;50.90;93041.13;4959945;28;20091;-77
2021/01/13 10:39:04;;;;;;;21.35;13.23;;;;;;;7.65;50.90;93052.31;4957416;28;20057;-76
2021/01/13 10:41:34;;;;;;;18.98;13.32;;;;;;;7.65;51.09;93046.25;4958044;28;20510;-75
2021/01/13 10:44:13;;;;;;;20.48;13.52;;;;;;;7.68;51.01;93029.91;4959543;28;20077;-76
2021/01/13 10:46:51;;;;;;;25.02;15.82;;;;;;;7.76;51.35;93042.41;4959962;28;20672;-77
2021/01/13 10:49:23;;;;;;;19.77;13.57;;;;;;;7.84;51.14;93033.84;4959372;28;20084;-77
2021/01/13 10:51:51;;;;;;;21.05;13.90;;;;;;;7.76;51.29;93026.63;4959775;28;20093;-76
2021/01/13 10:54:19;;;;;;;17.75;13.23;;;;;;;7.94;51.33;93028.41;4957189;28;20102;-76
2021/01/13 10:56:50;;;;;;;18.63;12.23;;;;;;;7.99;50.92;93015.16;4963224;28;20538;-76
2021/01/13 10:59:16;;;;;;;19.90;12.95;;;;;;;7.98;50.41;93010.97;4972569;28;20057;-77
2021/01/13 11:02:05;;;;;;;17.45;12.90;;;;;;;7.90;50.11;93009.00;4960366;28;20104;-76
2021/01/13 11:04:30;;;;;;;18.30;13.30;;;;;;;7.79;50.18;93021.56;4960022;28;20601;-77
2021/01/13 11:07:18;;;;;;;17.52;12.35;;;;;;;7.81;50.31;93018.66;4959943;28;20046;-76
2021/01/13 11:09:45;;;;;;;16.92;11.80;;;;;;;7.82;50.33;93023.59;4957299;28;20130;-77
2021/01/13 11:12:20;;;;;;;16.05;10.95;;;;;;;7.72;50.28;93012.50;4960504;28;20133;-76
2021/01/13 11:14:49;;;;;;;25.40;15.55;;;;;;;7.82;50.74;93028.88;4956101;28;20430;-77
2021/01/13 11:17:25;;;;;;;23.42;15.68;;;;;;;7.65;51.35;93038.38;4956368;28;20057;-77
2021/01/13 11:19:58;;;;;;;23.10;17.48;;;;;;;7.51;51.97;93032.31;4964708;28;20069;-77
2021/01/13 11:22:48;;;;;;;28.05;20.20;;;;;;;7.56;52.95;93022.50;4961362;28;20051;-76
2021/01/13 11:25:32;;;;;;;24.02;15.50;;;;;;;7.56;52.34;93040.09;4978361;28;20038;-76
2021/01/13 11:28:06;;;;;;;22.70;16.63;;;;;;;7.54;52.72;93029.09;4954938;28;20143;-76
2021/01/13 11:30:36;;;;;;;26.73;18.35;;;;;;;7.48;53.21;93046.03;4949443;28;20051;-77
2021/01/13 11:33:04;;;;;;;32.65;20.60;;;;;;;7.33;53.89;93036.53;4963493;28;20073;-76
2021/01/13 11:35:35;;;;;;;30.73;20.30;;;;;;;7.26;54.07;93038.72;4961188;28;20356;-76
2021/01/13 11:38:16;;;;;;;39.72;25.92;;;;;;;7.13;54.75;93044.72;4961097;28;20154;-77
2021/01/13 11:40:53;;;;;;;34.63;22.25;;;;;;;7.04;54.86;93044.56;4971349;28;20054;-77
2021/01/13 11:43:44;;;;;;;39.03;25.65;;;;;;;6.99;55.74;93052.50;4957187;28;20038;-75
2021/01/13 11:46:17;;;;;;;36.95;23.10;;;;;;;6.98;55.88;93053.59;4964341;28;20121;-77
2021/01/13 11:48:55;;;;;;;35.03;22.92;;;;;;;6.96;55.66;93055.72;4961891;28;20073;-77
2021/01/13 11:51:23;;;;;;;35.97;24.40;;;;;;;6.94;55.92;93052.56;4960925;28;20097;-78
2021/01/13 11:53:49;;;;;;;35.25;23.67;;;;;;;6.87;56.25;93052.16;4964398;28;20035;-76